Aviation Digital Data Service (ADDS)

Output produced by TAFs form (0400 UTC 23 September 2017)
found at http://www.aviationweather.gov/adds/tafs/
 
KSTC 222335Z 2300/2324 17015KT P6SM SCT150 
     FM230200 18013KT P6SM FEW250 WS018/21050KT 
     FM230700 19009KT P6SM BKN150 
     FM231200 18005KT P6SM SCT040 BKN200 
     FM231700 18006KT P6SM OVC035